sensor_id;sensor_type;location;lat;lon;timestamp;pressure;altitude;pressure_sealevel;temperature;humidity
19672;BME280;9983;51.114;13.788;2023-06-22T00:00:19;99649.19;;;21.25;100.00
19672;BME280;9983;51.114;13.788;2023-06-22T00:05:21;99643.38;;;20.74;100.00
19672;BME280;9983;51.114;13.788;2023-06-22T00:10:21;99651.47;;;21.56;100.00
19672;BME280;9983;51.114;13.788;2023-06-22T00:15:22;99649.34;;;21.58;100.00
19672;BME280;9983;51.114;13.788;2023-06-22T00:20:23;99660.19;;;20.71;100.00
19672;BME280;9983;51.114;13.788;2023-06-22T00:25:27;99669.09;;;20.90;100.00
19672;BME280;9983;51.114;13.788;2023-06-22T00:30:28;99681.50;;;21.09;100.00
19672;BME280;9983;51.114;13.788;2023-06-22T00:35:28;99681.25;;;21.57;100.00
19672;BME280;9983;51.114;13.788;2023-06-22T00:40:32;99670.50;;;21.28;100.00
19672;BME280;9983;51.114;13.788;2023-06-22T00:45:32;99681.78;;;20.31;100.00
19672;BME280;9983;51.114;13.788;2023-06-22T00:50:33;99677.00;;;20.27;100.00
19672;BME280;9983;51.114;13.788;2023-06-22T00:55:36;99672.81;;;20.42;100.00
19672;BME280;9983;51.114;13.788;2023-06-22T01:00:43;99674.28;;;20.80;100.00
19672;BME280;9983;51.114;13.788;2023-06-22T01:05:43;99674.28;;;20.80;100.00
19672;BME280;9983;51.114;13.788;2023-06-22T01:11:05;99673.56;;;20.50;100.00
19672;BME280;9983;51.114;13.788;2023-06-22T01:16:12;99674.28;;;20.57;100.00
19672;BME280;9983;51.114;13.788;2023-06-22T01:21:18;99668.34;;;20.60;100.00
19672;BME280;9983;51.114;13.788;2023-06-22T01:26:28;99672.56;;;20.32;100.00
19672;BME280;9983;51.114;13.788;2023-06-22T01:31:35;99670.69;;;20.44;100.00
19672;BME280;9983;51.114;13.788;2023-06-22T01:36:36;99665.88;;;20.93;100.00
19672;BME280;9983;51.114;13.788;2023-06-22T01:41:38;99662.34;;;20.81;100.00
19672;BME280;9983;51.114;13.788;2023-06-22T01:46:39;99661.22;;;20.35;100.00
19672;BME280;9983;51.114;13.788;2023-06-22T01:51:40;99663.63;;;20.14;100.00
19672;BME280;9983;51.114;13.788;2023-06-22T01:56:40;99661.16;;;19.94;100.00
19672;BME280;9983;51.114;13.788;2023-06-22T02:01:44;99649.88;;;19.79;100.00
19672;BME280;9983;51.114;13.788;2023-06-22T02:06:50;99663.06;;;20.23;100.00
19672;BME280;9983;51.114;13.788;2023-06-22T02:11:55;99652.63;;;20.20;100.00
19672;BME280;9983;51.114;13.788;2023-06-22T02:16:56;99658.38;;;19.52;100.00
19672;BME280;9983;51.114;13.788;2023-06-22T02:21:59;99658.28;;;20.07;100.00
19672;BME280;9983;51.114;13.788;2023-06-22T02:27:00;99654.34;;;20.44;100.00
19672;BME280;9983;51.114;13.788;2023-06-22T02:32:01;99654.09;;;20.34;100.00
19672;BME280;9983;51.114;13.788;2023-06-22T02:37:01;99654.38;;;19.85;100.00
19672;BME280;9983;51.114;13.788;2023-06-22T02:42:02;99658.03;;;20.38;100.00
19672;BME280;9983;51.114;13.788;2023-06-22T02:47:03;99661.16;;;19.82;100.00
19672;BME280;9983;51.114;13.788;2023-06-22T02:52:03;99672.28;;;19.62;100.00
19672;BME280;9983;51.114;13.788;2023-06-22T02:57:04;99688.72;;;19.31;100.00
19672;BME280;9983;51.114;13.788;2023-06-22T03:02:04;99683.25;;;19.86;100.00
19672;BME280;9983;51.114;13.788;2023-06-22T03:07:05;99670.06;;;20.01;100.00
19672;BME280;9983;51.114;13.788;2023-06-22T03:12:05;99680.41;;;19.44;100.00
19672;BME280;9983;51.114;13.788;2023-06-22T03:17:05;99677.38;;;19.89;100.00
19672;BME280;9983;51.114;13.788;2023-06-22T03:22:06;99666.66;;;19.76;100.00
19672;BME280;9983;51.114;13.788;2023-06-22T03:27:07;99652.09;;;20.00;100.00
19672;BME280;9983;51.114;13.788;2023-06-22T03:32:08;99640.22;;;19.83;100.00
19672;BME280;9983;51.114;13.788;2023-06-22T03:37:08;99636.34;;;20.02;100.00
19672;BME280;9983;51.114;13.788;2023-06-22T03:42:08;99648.38;;;20.24;100.00
19672;BME280;9983;51.114;13.788;2023-06-22T03:47:08;99642.75;;;20.37;100.00
19672;BME280;9983;51.114;13.788;2023-06-22T03:52:09;99654.38;;;19.85;100.00
19672;BME280;9983;51.114;13.788;2023-06-22T03:57:11;99646.84;;;19.87;100.00
19672;BME280;9983;51.114;13.788;2023-06-22T04:02:11;99643.84;;;20.18;100.00
19672;BME280;9983;51.114;13.788;2023-06-22T04:07:12;99641.75;;;19.60;100.00
19672;BME280;9983;51.114;13.788;2023-06-22T04:12:12;99647.75;;;19.81;100.00
19672;BME280;9983;51.114;13.788;2023-06-22T04:17:13;99663.22;;;19.14;100.00
19672;BME280;9983;51.114;13.788;2023-06-22T04:22:14;99675.34;;;20.14;100.00
19672;BME280;9983;51.114;13.788;2023-06-22T04:27:14;99671.19;;;19.82;100.00
19672;BME280;9983;51.114;13.788;2023-06-22T04:32:15;99663.59;;;19.84;100.00
19672;BME280;9983;51.114;13.788;2023-06-22T04:37:15;99672.34;;;20.45;100.00
19672;BME280;9983;51.114;13.788;2023-06-22T04:42:16;99670.44;;;20.34;100.00
19672;BME280;9983;51.114;13.788;2023-06-22T04:47:16;99686.84;;;20.81;100.00
19672;BME280;9983;51.114;13.788;2023-06-22T04:52:17;99694.50;;;20.19;100.00
19672;BME280;9983;51.114;13.788;2023-06-22T04:57:17;99710.91;;;20.84;100.00
19672;BME280;9983;51.114;13.788;2023-06-22T05:02:18;99718.75;;;21.15;100.00
19672;BME280;9983;51.114;13.788;2023-06-22T05:07:18;99722.88;;;21.06;100.00
19672;BME280;9983;51.114;13.788;2023-06-22T05:12:18;99724.28;;;21.67;100.00
19672;BME280;9983;51.114;13.788;2023-06-22T05:17:18;99742.19;;;21.63;100.00
19672;BME280;9983;51.114;13.788;2023-06-22T05:22:19;99749.69;;;21.96;100.00
19672;BME280;9983;51.114;13.788;2023-06-22T05:27:19;99749.16;;;22.22;100.00
19672;BME280;9983;51.114;13.788;2023-06-22T05:32:19;99751.41;;;22.70;100.00
19672;BME280;9983;51.114;13.788;2023-06-22T05:37:20;99750.78;;;22.97;100.00
19672;BME280;9983;51.114;13.788;2023-06-22T05:42:21;99731.03;;;23.28;100.00
19672;BME280;9983;51.114;13.788;2023-06-22T05:47:22;99722.38;;;23.53;100.00
19672;BME280;9983;51.114;13.788;2023-06-22T05:52:22;99725.13;;;23.75;100.00
19672;BME280;9983;51.114;13.788;2023-06-22T05:57:23;99733.53;;;23.90;100.00
19672;BME280;9983;51.114;13.788;2023-06-22T06:02:23;99717.47;;;24.20;100.00
19672;BME280;9983;51.114;13.788;2023-06-22T06:07:23;99712.19;;;24.41;99.00
19672;BME280;9983;51.114;13.788;2023-06-22T06:12:24;99707.22;;;24.65;95.84
19672;BME280;9983;51.114;13.788;2023-06-22T06:17:24;99701.59;;;24.81;96.80
19672;BME280;9983;51.114;13.788;2023-06-22T06:22:24;99699.66;;;25.14;95.45
19672;BME280;9983;51.114;13.788;2023-06-22T06:27:24;99674.16;;;25.60;93.09
19672;BME280;9983;51.114;13.788;2023-06-22T06:32:29;99634.13;;;25.85;86.14
19672;BME280;9983;51.114;13.788;2023-06-22T06:37:29;99611.66;;;26.08;88.58
19672;BME280;9983;51.114;13.788;2023-06-22T06:42:29;99621.59;;;26.39;84.98
19672;BME280;9983;51.114;13.788;2023-06-22T06:47:29;99631.22;;;26.47;82.98
19672;BME280;9983;51.114;13.788;2023-06-22T06:52:30;99612.22;;;26.71;82.65
19672;BME280;9983;51.114;13.788;2023-06-22T06:57:30;99595.72;;;26.76;84.02
19672;BME280;9983;51.114;13.788;2023-06-22T07:02:30;99605.06;;;26.65;83.81
19672;BME280;9983;51.114;13.788;2023-06-22T07:07:31;99618.81;;;26.70;83.60
19672;BME280;9983;51.114;13.788;2023-06-22T07:12:31;99644.94;;;26.72;82.76
19672;BME280;9983;51.114;13.788;2023-06-22T07:17:31;99638.06;;;26.75;85.00
19672;BME280;9983;51.114;13.788;2023-06-22T07:22:32;99633.66;;;26.89;81.69
19672;BME280;9983;51.114;13.788;2023-06-22T07:27:32;99627.06;;;27.00;81.43
19672;BME280;9983;51.114;13.788;2023-06-22T07:32:36;99633.63;;;27.19;81.14
19672;BME280;9983;51.114;13.788;2023-06-22T07:37:36;99629.38;;;27.47;79.45
19672;BME280;9983;51.114;13.788;2023-06-22T07:42:36;99624.00;;;27.81;77.41
19672;BME280;9983;51.114;13.788;2023-06-22T07:47:37;99623.94;;;27.91;75.94
19672;BME280;9983;51.114;13.788;2023-06-22T07:52:37;99627.97;;;27.60;76.77
19672;BME280;9983;51.114;13.788;2023-06-22T07:57:37;99631.34;;;27.96;74.54
19672;BME280;9983;51.114;13.788;2023-06-22T08:02:39;99625.44;;;28.13;73.30
19672;BME280;9983;51.114;13.788;2023-06-22T08:07:39;99626.69;;;28.36;72.39
19672;BME280;9983;51.114;13.788;2023-06-22T08:12:42;99618.00;;;28.52;70.64
19672;BME280;9983;51.114;13.788;2023-06-22T08:17:44;99620.72;;;28.57;71.51
19672;BME280;9983;51.114;13.788;2023-06-22T08:22:44;99631.75;;;29.15;68.35
19672;BME280;9983;51.114;13.788;2023-06-22T08:27:45;99608.34;;;29.36;66.71
19672;BME280;9983;51.114;13.788;2023-06-22T08:32:47;99610.75;;;29.19;68.08
19672;BME280;9983;51.114;13.788;2023-06-22T08:37:47;99604.13;;;29.63;66.76
19672;BME280;9983;51.114;13.788;2023-06-22T08:42:51;99607.41;;;29.65;66.02
19672;BME280;9983;51.114;13.788;2023-06-22T08:47:52;99597.09;;;29.52;65.32
19672;BME280;9983;51.114;13.788;2023-06-22T08:52:52;99610.13;;;29.70;67.16
19672;BME280;9983;51.114;13.788;2023-06-22T08:57:52;99606.75;;;29.92;62.67
19672;BME280;9983;51.114;13.788;2023-06-22T09:02:52;99600.94;;;29.93;64.06
19672;BME280;9983;51.114;13.788;2023-06-22T09:07:53;99597.53;;;30.20;60.17
19672;BME280;9983;51.114;13.788;2023-06-22T09:12:56;99595.31;;;30.36;59.19
19672;BME280;9983;51.114;13.788;2023-06-22T09:17:57;99607.81;;;30.33;58.79
19672;BME280;9983;51.114;13.788;2023-06-22T09:22:57;99595.16;;;30.46;56.77
19672;BME280;9983;51.114;13.788;2023-06-22T09:27:58;99590.06;;;30.53;56.64
19672;BME280;9983;51.114;13.788;2023-06-22T09:32:58;99593.41;;;30.82;56.56
19672;BME280;9983;51.114;13.788;2023-06-22T09:38:00;99577.78;;;30.59;55.00
19672;BME280;9983;51.114;13.788;2023-06-22T09:43:00;99574.91;;;30.64;55.48
19672;BME280;9983;51.114;13.788;2023-06-22T09:48:00;99569.22;;;31.02;53.97
19672;BME280;9983;51.114;13.788;2023-06-22T09:53:00;99566.56;;;31.24;52.56
19672;BME280;9983;51.114;13.788;2023-06-22T09:58:01;99571.31;;;31.10;53.43
19672;BME280;9983;51.114;13.788;2023-06-22T10:03:01;99574.75;;;31.02;54.08
19672;BME280;9983;51.114;13.788;2023-06-22T10:08:01;99567.81;;;31.45;53.71
19672;BME280;9983;51.114;13.788;2023-06-22T10:13:09;99556.19;;;31.71;54.29
19672;BME280;9983;51.114;13.788;2023-06-22T10:18:12;99555.97;;;32.03;53.83
19672;BME280;9983;51.114;13.788;2023-06-22T10:23:13;99553.69;;;32.05;51.02
19672;BME280;9983;51.114;13.788;2023-06-22T10:28:13;99550.56;;;32.20;49.38
19672;BME280;9983;51.114;13.788;2023-06-22T10:33:14;99542.63;;;32.05;47.82
19672;BME280;9983;51.114;13.788;2023-06-22T10:38:14;99536.31;;;32.35;49.10
19672;BME280;9983;51.114;13.788;2023-06-22T10:43:14;99539.81;;;31.83;50.61
19672;BME280;9983;51.114;13.788;2023-06-22T10:48:14;99525.56;;;32.42;47.88
19672;BME280;9983;51.114;13.788;2023-06-22T10:53:15;99519.44;;;32.85;46.79
19672;BME280;9983;51.114;13.788;2023-06-22T10:58:15;99513.75;;;33.47;47.21
19672;BME280;9983;51.114;13.788;2023-06-22T11:03:15;99513.28;;;34.14;44.37
19672;BME280;9983;51.114;13.788;2023-06-22T11:08:15;99506.38;;;33.51;46.04
19672;BME280;9983;51.114;13.788;2023-06-22T11:13:16;99500.50;;;33.61;46.03
19672;BME280;9983;51.114;13.788;2023-06-22T11:18:16;99504.75;;;34.19;43.69
19672;BME280;9983;51.114;13.788;2023-06-22T11:23:16;99497.25;;;33.76;44.19
19672;BME280;9983;51.114;13.788;2023-06-22T11:28:16;99496.94;;;33.86;44.23
19672;BME280;9983;51.114;13.788;2023-06-22T11:33:17;99507.22;;;34.12;43.59
19672;BME280;9983;51.114;13.788;2023-06-22T11:38:17;99494.00;;;35.02;40.84
19672;BME280;9983;51.114;13.788;2023-06-22T11:43:17;99469.56;;;36.11;39.51
19672;BME280;9983;51.114;13.788;2023-06-22T11:48:17;99462.38;;;37.69;35.92
19672;BME280;9983;51.114;13.788;2023-06-22T11:53:18;99452.72;;;37.14;36.90
19672;BME280;9983;51.114;13.788;2023-06-22T11:58:18;99461.19;;;38.25;35.60
19672;BME280;9983;51.114;13.788;2023-06-22T12:03:18;99467.44;;;38.34;33.53
19672;BME280;9983;51.114;13.788;2023-06-22T12:08:19;99449.84;;;38.50;33.69
19672;BME280;9983;51.114;13.788;2023-06-22T12:13:19;99435.13;;;40.35;31.63
19672;BME280;9983;51.114;13.788;2023-06-22T12:18:19;99435.50;;;39.18;32.65
19672;BME280;9983;51.114;13.788;2023-06-22T12:23:21;99434.66;;;38.51;34.43
19672;BME280;9983;51.114;13.788;2023-06-22T12:28:21;99428.91;;;39.45;32.62
19672;BME280;9983;51.114;13.788;2023-06-22T12:33:23;99426.63;;;38.65;33.17
19672;BME280;9983;51.114;13.788;2023-06-22T12:38:23;99421.50;;;40.14;31.05
19672;BME280;9983;51.114;13.788;2023-06-22T12:43:26;99398.19;;;39.33;31.76
19672;BME280;9983;51.114;13.788;2023-06-22T12:48:27;99398.31;;;37.23;34.50
19672;BME280;9983;51.114;13.788;2023-06-22T12:53:27;99400.69;;;37.49;35.10
19672;BME280;9983;51.114;13.788;2023-06-22T12:58:28;99398.09;;;36.92;36.96
19672;BME280;9983;51.114;13.788;2023-06-22T13:03:28;99398.63;;;37.90;35.06
19672;BME280;9983;51.114;13.788;2023-06-22T13:08:28;99384.31;;;38.70;33.24
19672;BME280;9983;51.114;13.788;2023-06-22T13:13:28;99380.66;;;40.66;30.71
19672;BME280;9983;51.114;13.788;2023-06-22T13:18:29;99370.53;;;40.84;29.43
19672;BME280;9983;51.114;13.788;2023-06-22T13:23:29;99367.03;;;40.68;30.26
19672;BME280;9983;51.114;13.788;2023-06-22T13:28:29;99367.38;;;40.89;29.50
19672;BME280;9983;51.114;13.788;2023-06-22T13:33:30;99366.44;;;39.87;30.85
19672;BME280;9983;51.114;13.788;2023-06-22T13:38:30;99362.06;;;41.10;30.41
19672;BME280;9983;51.114;13.788;2023-06-22T13:43:32;99341.00;;;41.60;28.60
19672;BME280;9983;51.114;13.788;2023-06-22T13:48:33;99330.88;;;42.37;28.59
19672;BME280;9983;51.114;13.788;2023-06-22T13:53:33;99314.03;;;43.13;27.03
19672;BME280;9983;51.114;13.788;2023-06-22T13:58:33;99306.31;;;42.92;27.03
19672;BME280;9983;51.114;13.788;2023-06-22T14:03:33;99302.00;;;43.16;26.99
19672;BME280;9983;51.114;13.788;2023-06-22T14:08:34;99303.66;;;43.31;27.42
19672;BME280;9983;51.114;13.788;2023-06-22T14:13:34;99311.00;;;43.61;26.78
19672;BME280;9983;51.114;13.788;2023-06-22T14:18:35;99314.13;;;42.07;28.17
19672;BME280;9983;51.114;13.788;2023-06-22T14:23:36;99297.47;;;41.51;28.93
19672;BME280;9983;51.114;13.788;2023-06-22T14:28:37;99286.09;;;40.50;30.40
19672;BME280;9983;51.114;13.788;2023-06-22T14:33:37;99273.22;;;40.23;30.67
19672;BME280;9983;51.114;13.788;2023-06-22T14:38:38;99272.69;;;38.72;32.63
19672;BME280;9983;51.114;13.788;2023-06-22T14:43:38;99264.03;;;39.16;32.36
19672;BME280;9983;51.114;13.788;2023-06-22T14:48:38;99255.81;;;39.45;33.04
19672;BME280;9983;51.114;13.788;2023-06-22T14:53:39;99253.44;;;40.16;31.51
19672;BME280;9983;51.114;13.788;2023-06-22T14:58:40;99254.00;;;39.79;31.48
19672;BME280;9983;51.114;13.788;2023-06-22T15:03:41;99231.94;;;39.55;32.33
19672;BME280;9983;51.114;13.788;2023-06-22T15:08:41;99210.69;;;40.86;31.22
19672;BME280;9983;51.114;13.788;2023-06-22T15:13:42;99218.38;;;41.22;29.52
19672;BME280;9983;51.114;13.788;2023-06-22T15:18:42;99216.31;;;42.62;28.32
19672;BME280;9983;51.114;13.788;2023-06-22T15:23:42;99220.25;;;42.47;27.81
19672;BME280;9983;51.114;13.788;2023-06-22T15:28:43;99208.19;;;40.77;29.93
19672;BME280;9983;51.114;13.788;2023-06-22T15:33:43;99213.31;;;41.79;29.23
19672;BME280;9983;51.114;13.788;2023-06-22T15:38:43;99197.56;;;42.26;28.86
19672;BME280;9983;51.114;13.788;2023-06-22T15:43:43;99175.97;;;41.42;29.37
19672;BME280;9983;51.114;13.788;2023-06-22T15:48:44;99160.16;;;42.29;28.23
19672;BME280;9983;51.114;13.788;2023-06-22T15:53:44;99169.06;;;41.76;28.90
19672;BME280;9983;51.114;13.788;2023-06-22T15:58:45;99151.97;;;42.86;27.66
19672;BME280;9983;51.114;13.788;2023-06-22T16:03:45;99145.53;;;42.89;28.04
19672;BME280;9983;51.114;13.788;2023-06-22T16:08:45;99145.25;;;43.43;26.92
19672;BME280;9983;51.114;13.788;2023-06-22T16:13:45;99145.66;;;43.49;27.26
19672;BME280;9983;51.114;13.788;2023-06-22T16:18:46;99136.00;;;43.68;26.96
19672;BME280;9983;51.114;13.788;2023-06-22T16:23:47;99126.94;;;42.66;27.51
19672;BME280;9983;51.114;13.788;2023-06-22T16:28:47;99138.25;;;41.50;29.07
19672;BME280;9983;51.114;13.788;2023-06-22T16:33:47;99128.13;;;40.34;30.92
19672;BME280;9983;51.114;13.788;2023-06-22T16:38:49;99134.19;;;39.57;31.79
19672;BME280;9983;51.114;13.788;2023-06-22T16:43:50;99133.47;;;38.76;33.78
19672;BME280;9983;51.114;13.788;2023-06-22T16:48:50;99120.44;;;37.91;35.79
19672;BME280;9983;51.114;13.788;2023-06-22T16:53:54;99124.28;;;37.08;36.87
19672;BME280;9983;51.114;13.788;2023-06-22T16:58:57;99116.06;;;36.83;37.79
19672;BME280;9983;51.114;13.788;2023-06-22T17:04:04;99098.66;;;36.06;39.94
19672;BME280;9983;51.114;13.788;2023-06-22T17:09:11;99088.25;;;35.79;40.57
19672;BME280;9983;51.114;13.788;2023-06-22T17:14:11;99070.81;;;35.33;41.96
19672;BME280;9983;51.114;13.788;2023-06-22T17:19:12;99056.16;;;35.12;42.46
19672;BME280;9983;51.114;13.788;2023-06-22T17:24:15;99050.53;;;34.76;42.93
19672;BME280;9983;51.114;13.788;2023-06-22T17:29:16;99034.22;;;34.53;43.79
19672;BME280;9983;51.114;13.788;2023-06-22T17:34:17;99046.25;;;34.45;43.89
19672;BME280;9983;51.114;13.788;2023-06-22T17:39:22;99050.75;;;34.17;44.53
19672;BME280;9983;51.114;13.788;2023-06-22T17:44:26;99042.44;;;33.96;45.28
19672;BME280;9983;51.114;13.788;2023-06-22T17:49:28;99025.06;;;33.78;45.55
19672;BME280;9983;51.114;13.788;2023-06-22T17:54:30;99022.94;;;33.16;47.77
19672;BME280;9983;51.114;13.788;2023-06-22T17:59:32;99014.81;;;33.11;47.16
19672;BME280;9983;51.114;13.788;2023-06-22T18:04:32;98991.44;;;32.74;48.27
19672;BME280;9983;51.114;13.788;2023-06-22T18:09:32;98979.13;;;32.46;49.37
19672;BME280;9983;51.114;13.788;2023-06-22T18:14:33;98994.50;;;32.09;51.17
19672;BME280;9983;51.114;13.788;2023-06-22T18:19:36;98967.41;;;32.15;50.42
19672;BME280;9983;51.114;13.788;2023-06-22T18:24:39;98985.38;;;32.00;50.74
19672;BME280;9983;51.114;13.788;2023-06-22T18:29:41;98975.94;;;31.66;51.97
19672;BME280;9983;51.114;13.788;2023-06-22T18:34:42;98978.22;;;31.64;52.48
19672;BME280;9983;51.114;13.788;2023-06-22T18:39:44;98952.09;;;31.48;52.89
19672;BME280;9983;51.114;13.788;2023-06-22T18:44:52;98963.16;;;31.48;52.65
19672;BME280;9983;51.114;13.788;2023-06-22T18:49:52;98975.56;;;31.42;53.14
19672;BME280;9983;51.114;13.788;2023-06-22T18:54:52;98966.09;;;31.26;53.69
19672;BME280;9983;51.114;13.788;2023-06-22T19:00:07;98969.50;;;31.32;53.38
19672;BME280;9983;51.114;13.788;2023-06-22T19:10:27;98972.91;;;30.80;55.57
19672;BME280;9983;51.114;13.788;2023-06-22T19:15:32;98981.22;;;30.80;55.99
19672;BME280;9983;51.114;13.788;2023-06-22T19:20:35;98972.72;;;30.68;56.12
19672;BME280;9983;51.114;13.788;2023-06-22T19:25:36;98970.38;;;30.53;56.49
19672;BME280;9983;51.114;13.788;2023-06-22T19:30:36;98964.41;;;30.68;56.01
19672;BME280;9983;51.114;13.788;2023-06-22T19:35:37;98951.09;;;30.48;56.56
19672;BME280;9983;51.114;13.788;2023-06-22T19:40:39;98960.19;;;30.40;56.87
19672;BME280;9983;51.114;13.788;2023-06-22T19:45:41;98943.78;;;30.12;58.06
19672;BME280;9983;51.114;13.788;2023-06-22T19:50:42;98935.09;;;30.28;57.18
19672;BME280;9983;51.114;13.788;2023-06-22T19:55:46;98939.09;;;30.22;57.45
19672;BME280;9983;51.114;13.788;2023-06-22T20:00:47;98920.13;;;30.29;57.11
19672;BME280;9983;51.114;13.788;2023-06-22T20:05:53;98896.53;;;30.00;58.22
19672;BME280;9983;51.114;13.788;2023-06-22T20:10:55;98903.69;;;30.01;57.98
19672;BME280;9983;51.114;13.788;2023-06-22T20:16:08;98907.59;;;30.00;58.06
19672;BME280;9983;51.114;13.788;2023-06-22T20:21:12;98895.66;;;29.69;59.18
19672;BME280;9983;51.114;13.788;2023-06-22T20:26:13;98869.91;;;29.82;58.94
19672;BME280;9983;51.114;13.788;2023-06-22T20:31:17;98850.94;;;29.67;59.03
19672;BME280;9983;51.114;13.788;2023-06-22T20:36:17;98836.63;;;29.65;59.57
19672;BME280;9983;51.114;13.788;2023-06-22T20:41:18;98837.75;;;29.64;59.50
19672;BME280;9983;51.114;13.788;2023-06-22T20:46:18;98846.81;;;29.56;59.79
19672;BME280;9983;51.114;13.788;2023-06-22T20:51:18;98842.09;;;29.56;59.99
19672;BME280;9983;51.114;13.788;2023-06-22T20:56:18;98815.56;;;29.47;60.28
19672;BME280;9983;51.114;13.788;2023-06-22T21:01:19;98777.16;;;29.36;60.87
19672;BME280;9983;51.114;13.788;2023-06-22T21:06:19;98765.31;;;29.36;61.05
19672;BME280;9983;51.114;13.788;2023-06-22T21:11:19;98786.59;;;29.35;61.48
19672;BME280;9983;51.114;13.788;2023-06-22T21:16:20;98816.91;;;29.13;62.15
19672;BME280;9983;51.114;13.788;2023-06-22T21:21:20;98838.91;;;29.40;61.23
19672;BME280;9983;51.114;13.788;2023-06-22T21:26:20;98859.56;;;29.29;62.30
19672;BME280;9983;51.114;13.788;2023-06-22T21:31:20;98872.25;;;29.30;62.30
19672;BME280;9983;51.114;13.788;2023-06-22T21:36:21;98892.38;;;28.67;66.26
19672;BME280;9983;51.114;13.788;2023-06-22T21:41:21;98927.53;;;29.03;64.81
19672;BME280;9983;51.114;13.788;2023-06-22T21:46:21;98944.41;;;28.60;70.49
19672;BME280;9983;51.114;13.788;2023-06-22T21:51:21;98967.16;;;28.52;73.16
19672;BME280;9983;51.114;13.788;2023-06-22T21:56:22;98905.47;;;28.35;78.31
19672;BME280;9983;51.114;13.788;2023-06-22T22:01:22;98894.84;;;27.63;88.77
19672;BME280;9983;51.114;13.788;2023-06-22T22:06:22;98884.28;;;27.33;93.42
19672;BME280;9983;51.114;13.788;2023-06-22T22:11:23;98883.31;;;26.62;100.00
19672;BME280;9983;51.114;13.788;2023-06-22T22:16:23;98945.25;;;26.55;100.00
19672;BME280;9983;51.114;13.788;2023-06-22T22:21:23;98952.03;;;26.38;100.00
19672;BME280;9983;51.114;13.788;2023-06-22T22:26:24;98968.34;;;26.25;100.00
19672;BME280;9983;51.114;13.788;2023-06-22T22:31:24;98969.44;;;25.95;100.00
19672;BME280;9983;51.114;13.788;2023-06-22T22:36:25;98964.66;;;25.77;100.00
19672;BME280;9983;51.114;13.788;2023-06-22T22:41:25;98958.31;;;25.32;100.00
19672;BME280;9983;51.114;13.788;2023-06-22T22:46:25;98996.53;;;25.73;100.00
19672;BME280;9983;51.114;13.788;2023-06-22T22:51:26;99025.41;;;25.01;100.00
19672;BME280;9983;51.114;13.788;2023-06-22T22:56:26;98999.22;;;24.18;100.00
19672;BME280;9983;51.114;13.788;2023-06-22T23:01:27;98996.44;;;23.78;100.00
19672;BME280;9983;51.114;13.788;2023-06-22T23:06:27;98978.00;;;23.28;100.00
19672;BME280;9983;51.114;13.788;2023-06-22T23:11:27;98969.41;;;22.94;100.00
19672;BME280;9983;51.114;13.788;2023-06-22T23:16:28;98977.88;;;22.45;100.00
19672;BME280;9983;51.114;13.788;2023-06-22T23:21:29;99061.34;;;22.26;100.00
19672;BME280;9983;51.114;13.788;2023-06-22T23:26:29;99237.59;;;22.65;100.00
19672;BME280;9983;51.114;13.788;2023-06-22T23:31:29;99273.63;;;21.03;100.00
19672;BME280;9983;51.114;13.788;2023-06-22T23:36:33;99174.56;;;21.14;100.00
19672;BME280;9983;51.114;13.788;2023-06-22T23:41:34;99180.72;;;21.22;100.00
19672;BME280;9983;51.114;13.788;2023-06-22T23:46:34;99222.47;;;21.44;100.00
19672;BME280;9983;51.114;13.788;2023-06-22T23:51:35;99167.09;;;21.43;100.00
19672;BME280;9983;51.114;13.788;2023-06-22T23:56:35;99161.56;;;21.38;100.00
